Time;durP1;ratioP1;P1;durP2;ratioP2;P2;SDS_P1;SDS_P2;PMS_P1;PMS_P2;Temp;Humidity;BMP_temperature;BMP_pressure;BME280_temperature;BME280_humidity;BME280_pressure;Samples;Min_cycle;Max_cycle;Signal;HPM_P1;HPM_P2
2023/07/16 00:01:06;;;;;;;16.73;9.17;;;23.40;34.70;;;;;;4986620;28;20873;-64
2023/07/16 00:03:32;;;;;;;13.47;8.80;;;23.40;34.10;;;;;;4986858;28;20503;-64
2023/07/16 00:05:59;;;;;;;14.87;8.87;;;23.40;33.90;;;;;;4986208;28;20500;-64
2023/07/16 00:08:26;;;;;;;17.97;9.07;;;23.30;34.20;;;;;;4986104;28;20465;-64
2023/07/16 00:10:53;;;;;;;18.40;9.20;;;23.30;34.40;;;;;;4986831;28;20468;-63
2023/07/16 00:13:21;;;;;;;17.63;9.20;;;23.20;34.60;;;;;;4984280;28;20492;-63
2023/07/16 00:15:47;;;;;;;17.00;8.53;;;23.20;34.70;;;;;;4984052;28;20503;-63
2023/07/16 00:18:14;;;;;;;19.63;9.30;;;23.20;34.90;;;;;;4987373;28;20472;-63
2023/07/16 00:20:41;;;;;;;15.63;8.57;;;23.20;34.90;;;;;;4988138;28;20484;-63
2023/07/16 00:23:07;;;;;;;11.60;8.77;;;23.20;35.10;;;;;;4982739;28;21225;-63
2023/07/16 00:25:35;;;;;;;17.27;8.57;;;23.20;35.20;;;;;;4984041;28;20475;-63
2023/07/16 00:28:02;;;;;;;12.10;8.77;;;23.10;35.40;;;;;;4987295;28;21344;-62
2023/07/16 00:30:30;;;;;;;14.00;9.27;;;23.10;35.30;;;;;;4985241;28;20463;-64
2023/07/16 00:32:57;;;;;;;19.90;9.43;;;23.10;35.50;;;;;;4987986;28;20880;-64
2023/07/16 00:35:24;;;;;;;11.33;8.70;;;23.10;35.20;;;;;;4978298;28;20472;-64
2023/07/16 00:37:51;;;;;;;15.97;8.40;;;23.20;35.10;;;;;;4986386;28;20558;-64
2023/07/16 00:40:18;;;;;;;13.43;9.13;;;23.10;35.20;;;;;;4984943;28;20501;-63
2023/07/16 00:42:44;;;;;;;15.57;8.50;;;23.10;35.30;;;;;;4986804;28;20464;-63
2023/07/16 00:45:14;;;;;;;13.80;9.80;;;23.10;35.40;;;;;;4987937;28;20503;-63
2023/07/16 00:47:43;;;;;;;13.13;8.13;;;23.00;35.70;;;;;;4989984;28;20472;-63
2023/07/16 00:50:12;;;;;;;12.67;8.87;;;23.00;35.70;;;;;;4999650;28;20461;-63
2023/07/16 00:52:39;;;;;;;12.80;9.47;;;23.00;35.90;;;;;;4990448;28;20914;-63
2023/07/16 00:55:08;;;;;;;12.93;8.90;;;22.90;36.20;;;;;;4985978;28;20501;-63
2023/07/16 00:57:36;;;;;;;12.80;8.40;;;22.90;36.20;;;;;;4985356;28;20934;-63
2023/07/16 01:00:04;;;;;;;12.63;8.30;;;22.80;36.20;;;;;;4981153;28;21049;-63
2023/07/16 01:02:31;;;;;;;12.60;8.20;;;22.80;36.30;;;;;;4983091;28;21131;-63
2023/07/16 01:04:59;;;;;;;12.60;8.80;;;22.90;36.20;;;;;;4984685;28;21204;-63
2023/07/16 01:07:27;;;;;;;10.37;7.90;;;22.90;36.20;;;;;;4986337;28;20465;-63
2023/07/16 01:09:54;;;;;;;12.03;8.30;;;22.80;36.40;;;;;;4990636;28;20465;-63
2023/07/16 01:12:23;;;;;;;12.43;8.13;;;22.80;35.90;;;;;;4983754;28;20501;-63
2023/07/16 01:14:51;;;;;;;10.47;7.20;;;22.80;36.00;;;;;;4984956;28;20520;-63
2023/07/16 01:17:17;;;;;;;12.67;8.13;;;22.80;35.80;;;;;;4989348;28;20465;-63
2023/07/16 01:19:44;;;;;;;13.20;7.97;;;22.80;36.00;;;;;;4986060;28;20481;-63
2023/07/16 01:22:33;;;;;;;11.70;6.80;;;22.80;35.70;;;;;;4986393;28;20478;-63
2023/07/16 01:25:21;;;;;;;10.70;6.77;;;22.80;35.90;;;;;;4984746;28;21029;-63
2023/07/16 01:28:20;;;;;;;13.90;6.83;;;22.80;35.60;;;;;;4984091;28;20464;-63
2023/07/16 01:30:48;;;;;;;9.60;7.90;;;22.80;35.90;;;;;;4987434;28;21220;-63
2023/07/16 01:33:17;;;;;;;12.80;6.73;;;22.80;35.80;;;;;;4984209;28;21268;-63
2023/07/16 01:35:45;;;;;;;10.73;5.77;;;22.90;35.70;;;;;;4988405;28;20468;-63
2023/07/16 01:38:13;;;;;;;10.10;6.50;;;22.90;35.90;;;;;;4991787;28;20476;-63
2023/07/16 01:40:40;;;;;;;12.70;7.27;;;22.90;35.70;;;;;;4989612;28;20725;-63
2023/07/16 01:43:06;;;;;;;10.83;7.03;;;23.00;35.40;;;;;;4988814;28;20472;-63
2023/07/16 01:45:33;;;;;;;8.90;5.80;;;23.00;35.50;;;;;;4987506;28;20468;-63
2023/07/16 01:48:10;;;;;;;7.70;5.33;;;22.90;35.80;;;;;;4985555;28;20479;-63
2023/07/16 01:50:37;;;;;;;10.60;5.27;;;22.90;35.80;;;;;;4987671;28;20523;-63
2023/07/16 01:53:04;;;;;;;7.37;4.10;;;22.90;35.40;;;;;;4985124;28;20462;-63
2023/07/16 01:55:30;;;;;;;7.23;3.80;;;22.80;35.60;;;;;;4987971;28;20468;-63
2023/07/16 01:57:57;;;;;;;8.33;3.50;;;22.80;35.50;;;;;;4992458;28;20465;-63
2023/07/16 02:00:24;;;;;;;8.53;4.27;;;22.80;35.40;;;;;;4986242;28;20477;-63
2023/07/16 02:02:50;;;;;;;6.77;3.20;;;22.80;35.30;;;;;;4988421;28;20469;-63
2023/07/16 02:05:18;;;;;;;7.57;3.80;;;22.70;35.30;;;;;;4989320;28;20484;-63
2023/07/16 02:07:45;;;;;;;7.50;3.93;;;22.60;35.60;;;;;;4989074;28;20472;-63
2023/07/16 02:10:12;;;;;;;6.90;3.53;;;22.70;35.70;;;;;;4987629;28;20965;-64
2023/07/16 02:12:38;;;;;;;6.43;3.30;;;22.60;35.40;;;;;;4985911;28;20472;-63
2023/07/16 02:15:06;;;;;;;6.13;3.00;;;22.60;35.40;;;;;;4987819;28;20869;-63
2023/07/16 02:17:33;;;;;;;5.80;3.47;;;22.50;35.20;;;;;;4987733;28;20817;-63
2023/07/16 02:19:59;;;;;;;6.60;2.70;;;22.50;35.40;;;;;;4985988;28;20481;-63
2023/07/16 02:22:28;;;;;;;5.13;2.50;;;22.50;35.20;;;;;;4986792;28;20465;-63
2023/07/16 02:24:54;;;;;;;8.80;3.77;;;22.50;35.30;;;;;;4987814;28;20496;-63
2023/07/16 02:27:21;;;;;;;5.30;2.90;;;22.40;35.20;;;;;;4987871;28;20461;-63
2023/07/16 02:29:48;;;;;;;7.17;3.40;;;22.40;35.60;;;;;;4981825;28;20465;-63
2023/07/16 02:32:14;;;;;;;8.03;4.50;;;22.30;36.20;;;;;;4979690;28;20552;-63
2023/07/16 02:34:41;;;;;;;6.57;3.33;;;22.30;36.00;;;;;;4987791;28;20495;-63
2023/07/16 02:37:08;;;;;;;6.37;2.70;;;22.30;35.60;;;;;;4987904;28;21291;-63
2023/07/16 02:39:36;;;;;;;12.97;2.70;;;22.30;35.50;;;;;;4987548;28;20496;-63
2023/07/16 02:42:03;;;;;;;25.53;4.07;;;22.20;35.80;;;;;;4982819;28;20469;-63
2023/07/16 02:44:30;;;;;;;6.17;2.70;;;22.20;35.90;;;;;;4979820;28;20492;-63
2023/07/16 02:46:56;;;;;;;7.13;2.60;;;22.10;35.70;;;;;;4987413;28;20974;-63
2023/07/16 02:49:23;;;;;;;8.47;3.33;;;22.10;36.10;;;;;;4988076;28;20864;-63
2023/07/16 02:51:50;;;;;;;7.00;2.90;;;22.10;36.10;;;;;;4984714;28;20476;-63
2023/07/16 02:54:16;;;;;;;7.13;3.17;;;22.10;36.30;;;;;;4987673;28;20495;-63
2023/07/16 02:56:44;;;;;;;7.27;3.43;;;22.10;36.20;;;;;;4986823;28;20487;-63
2023/07/16 02:59:11;;;;;;;7.83;3.70;;;22.10;36.20;;;;;;4988796;28;20475;-63
2023/07/16 03:01:38;;;;;;;6.60;3.50;;;22.10;35.40;;;;;;4983705;28;20499;-63
2023/07/16 03:04:04;;;;;;;6.40;2.70;;;22.10;35.10;;;;;;4989304;28;20518;-63
2023/07/16 03:06:31;;;;;;;6.40;2.60;;;22.10;35.00;;;;;;4985266;28;20469;-63
2023/07/16 03:08:58;;;;;;;6.83;2.20;;;22.00;34.50;;;;;;4982250;28;20864;-63
2023/07/16 03:11:25;;;;;;;5.73;2.63;;;22.00;33.70;;;;;;4985844;28;20878;-62
2023/07/16 03:13:53;;;;;;;6.57;2.83;;;21.90;33.20;;;;;;4986165;28;20519;-62
2023/07/16 03:16:20;;;;;;;6.80;2.87;;;21.90;33.10;;;;;;4988957;28;20471;-62
2023/07/16 03:18:46;;;;;;;5.30;2.30;;;21.80;32.80;;;;;;4984858;28;20487;-65
2023/07/16 03:21:13;;;;;;;6.70;2.37;;;21.80;32.10;;;;;;4981220;28;21041;-63
2023/07/16 03:23:40;;;;;;;6.90;2.47;;;21.80;31.20;;;;;;4988350;28;20484;-64
2023/07/16 03:26:07;;;;;;;6.37;3.10;;;21.80;31.20;;;;;;4987821;28;20472;-63
2023/07/16 03:28:33;;;;;;;7.10;2.63;;;21.70;31.40;;;;;;4987139;28;20472;-63
2023/07/16 03:31:02;;;;;;;7.20;2.60;;;21.60;31.50;;;;;;4986226;28;20998;-63
2023/07/16 03:33:28;;;;;;;6.80;2.70;;;21.60;31.80;;;;;;4983986;28;20990;-63
2023/07/16 03:35:55;;;;;;;5.60;2.63;;;21.50;32.50;;;;;;4985760;28;20468;-63
2023/07/16 03:38:22;;;;;;;9.47;2.67;;;21.50;32.30;;;;;;4986557;28;20957;-63
2023/07/16 03:40:50;;;;;;;11.13;3.00;;;21.40;32.50;;;;;;4987444;28;20477;-63
2023/07/16 03:43:17;;;;;;;10.87;2.87;;;21.40;32.70;;;;;;4982409;28;20488;-63
2023/07/16 03:45:44;;;;;;;8.80;3.17;;;21.30;33.00;;;;;;4982058;28;20464;-63
2023/07/16 03:48:12;;;;;;;6.90;2.40;;;21.30;33.60;;;;;;4985591;28;20473;-63
2023/07/16 03:50:39;;;;;;;9.20;2.90;;;21.20;33.60;;;;;;4985881;28;20977;-63
2023/07/16 03:53:06;;;;;;;11.27;3.20;;;21.20;33.60;;;;;;4989044;28;20469;-63
2023/07/16 03:55:32;;;;;;;6.57;2.70;;;21.10;33.60;;;;;;4982678;28;20468;-63
2023/07/16 03:57:59;;;;;;;9.03;3.30;;;21.10;33.70;;;;;;4987282;28;20468;-63
2023/07/16 04:00:26;;;;;;;7.73;2.60;;;21.20;33.80;;;;;;4984441;28;20980;-64
2023/07/16 04:02:52;;;;;;;9.30;2.70;;;21.10;33.80;;;;;;4985678;28;21328;-63
2023/07/16 04:05:21;;;;;;;6.20;2.93;;;21.10;34.10;;;;;;4985011;28;20471;-63
2023/07/16 04:07:47;;;;;;;8.73;2.60;;;21.20;33.80;;;;;;4983269;28;20471;-65
2023/07/16 04:10:14;;;;;;;7.37;2.17;;;21.10;33.50;;;;;;4983914;28;20467;-63
2023/07/16 04:12:41;;;;;;;6.00;2.47;;;21.10;33.20;;;;;;4986742;28;20468;-64
2023/07/16 04:15:10;;;;;;;8.03;2.33;;;21.10;33.10;;;;;;4982622;28;20491;-63
2023/07/16 04:17:36;;;;;;;6.20;2.47;;;21.10;33.10;;;;;;4990051;28;20554;-63
2023/07/16 04:20:04;;;;;;;6.80;2.20;;;21.10;33.20;;;;;;4985388;28;20465;-63
2023/07/16 04:22:33;;;;;;;6.80;2.50;;;21.00;33.40;;;;;;4982358;28;20491;-63
2023/07/16 04:25:00;;;;;;;7.50;2.33;;;21.00;33.60;;;;;;4981274;28;20496;-62
2023/07/16 04:27:26;;;;;;;10.80;2.50;;;21.00;33.60;;;;;;4984966;28;20468;-63
2023/07/16 04:29:53;;;;;;;12.27;2.50;;;21.00;33.60;;;;;;4982127;28;20969;-63
2023/07/16 04:32:20;;;;;;;5.70;2.33;;;21.10;33.70;;;;;;4983204;28;20473;-63
2023/07/16 04:34:46;;;;;;;8.27;2.27;;;21.10;33.80;;;;;;4982136;28;21020;-63
2023/07/16 04:37:13;;;;;;;8.40;2.83;;;21.10;34.00;;;;;;4982916;28;20469;-63
2023/07/16 04:39:41;;;;;;;7.80;2.90;;;21.10;34.50;;;;;;4985649;28;20475;-63
2023/07/16 04:42:08;;;;;;;7.53;2.30;;;21.10;34.90;;;;;;4985933;28;20986;-63
2023/07/16 04:44:34;;;;;;;12.03;3.30;;;21.10;34.90;;;;;;4987375;28;20480;-63
2023/07/16 04:47:01;;;;;;;7.60;2.57;;;21.10;35.10;;;;;;4985048;28;20476;-63
2023/07/16 04:49:28;;;;;;;8.17;3.17;;;21.10;35.10;;;;;;4991605;28;20468;-63
2023/07/16 04:51:54;;;;;;;7.87;2.93;;;21.20;35.00;;;;;;4990348;28;20468;-63
2023/07/16 04:54:21;;;;;;;6.73;2.20;;;21.20;34.60;;;;;;4989430;28;20484;-63
2023/07/16 04:56:49;;;;;;;7.77;3.10;;;21.30;35.10;;;;;;4989949;28;20468;-63
2023/07/16 04:59:16;;;;;;;9.00;2.47;;;21.40;35.00;;;;;;4993827;28;20468;-63
2023/07/16 05:01:42;;;;;;;8.80;2.70;;;21.70;35.20;;;;;;4987502;28;20481;-63
2023/07/16 05:04:09;;;;;;;6.40;2.00;;;22.00;34.00;;;;;;4990305;28;21107;-63
2023/07/16 05:06:36;;;;;;;8.73;3.00;;;22.00;33.30;;;;;;4987109;28;20460;-62
2023/07/16 05:09:03;;;;;;;7.83;2.60;;;22.00;32.60;;;;;;4988863;28;20468;-62
2023/07/16 05:11:29;;;;;;;6.77;2.60;;;21.90;32.50;;;;;;4990438;28;20589;-64
2023/07/16 05:13:57;;;;;;;7.00;2.93;;;21.90;32.50;;;;;;4982019;28;20851;-63
2023/07/16 05:16:24;;;;;;;10.53;3.00;;;21.90;32.30;;;;;;4986982;28;20464;-62
2023/07/16 05:18:51;;;;;;;8.90;3.20;;;21.90;31.90;;;;;;4988125;28;20985;-63
2023/07/16 05:21:17;;;;;;;4.90;2.17;;;21.90;31.60;;;;;;4988869;28;20517;-63
2023/07/16 05:23:44;;;;;;;6.50;2.50;;;21.90;31.40;;;;;;4985352;28;20485;-63
2023/07/16 05:26:11;;;;;;;5.87;2.10;;;21.80;30.80;;;;;;4988078;28;20471;-63
2023/07/16 05:28:38;;;;;;;6.70;1.87;;;21.80;31.10;;;;;;4990956;28;20551;-63
2023/07/16 05:31:06;;;;;;;5.43;2.53;;;21.80;31.20;;;;;;4985077;28;20481;-63
2023/07/16 05:33:32;;;;;;;8.50;1.83;;;21.70;30.90;;;;;;4988317;28;21299;-64
2023/07/16 05:35:59;;;;;;;4.97;2.27;;;21.70;30.70;;;;;;4990233;28;20464;-63
2023/07/16 05:38:26;;;;;;;6.17;1.70;;;21.70;30.90;;;;;;4987412;28;20476;-63
2023/07/16 05:40:52;;;;;;;4.97;1.63;;;21.70;30.90;;;;;;4988003;28;20498;-63
2023/07/16 05:43:19;;;;;;;7.30;2.20;;;21.70;30.40;;;;;;4986068;28;20489;-63
2023/07/16 05:45:46;;;;;;;5.00;1.70;;;21.70;29.60;;;;;;4987395;28;20464;-63
2023/07/16 05:48:14;;;;;;;5.07;1.67;;;21.60;29.60;;;;;;4986360;28;20477;-63
2023/07/16 05:50:40;;;;;;;4.80;1.50;;;21.60;29.40;;;;;;4985121;28;21007;-63
2023/07/16 05:53:07;;;;;;;5.00;1.87;;;21.60;29.80;;;;;;4988542;28;20496;-63
2023/07/16 05:55:34;;;;;;;4.60;1.70;;;21.50;30.20;;;;;;4986896;28;20469;-63
2023/07/16 05:58:00;;;;;;;6.43;1.70;;;21.60;30.40;;;;;;4985802;28;20460;-64
2023/07/16 06:00:27;;;;;;;5.17;1.80;;;21.60;30.40;;;;;;4988384;28;20469;-64
2023/07/16 06:02:54;;;;;;;9.33;3.30;;;21.70;30.10;;;;;;4988304;28;20488;-63
2023/07/16 06:05:24;;;;;;;4.80;1.70;;;21.70;30.50;;;;;;4986347;28;20471;-63
2023/07/16 06:07:51;;;;;;;5.73;1.90;;;21.70;30.00;;;;;;4984869;28;20464;-64
2023/07/16 06:10:17;;;;;;;6.77;2.10;;;21.70;30.10;;;;;;4986084;28;20465;-64
2023/07/16 06:12:44;;;;;;;7.13;2.20;;;21.70;30.10;;;;;;4987845;28;21261;-64
2023/07/16 06:15:11;;;;;;;5.67;2.03;;;21.70;30.20;;;;;;4986513;28;20488;-64
2023/07/16 06:17:38;;;;;;;6.13;2.23;;;21.90;28.70;;;;;;4988930;28;20476;-64
2023/07/16 06:20:06;;;;;;;4.77;1.60;;;21.90;28.90;;;;;;4988765;28;20464;-63
2023/07/16 06:22:35;;;;;;;6.10;2.30;;;21.90;28.90;;;;;;4988916;28;20543;-63
2023/07/16 06:25:01;;;;;;;6.83;2.20;;;21.80;28.90;;;;;;4985728;28;20476;-63
2023/07/16 06:27:28;;;;;;;4.80;2.20;;;21.80;28.60;;;;;;4987287;28;20468;-64
2023/07/16 06:29:55;;;;;;;5.30;2.00;;;21.80;28.40;;;;;;4988563;28;20469;-63
2023/07/16 06:32:22;;;;;;;4.80;1.70;;;21.70;28.80;;;;;;4987883;28;20477;-63
2023/07/16 06:34:48;;;;;;;5.47;1.80;;;21.70;28.60;;;;;;4984813;28;20488;-63
2023/07/16 06:37:15;;;;;;;9.37;2.10;;;21.80;28.50;;;;;;4987015;28;20468;-64
2023/07/16 06:39:43;;;;;;;6.50;1.90;;;21.80;28.90;;;;;;4978464;28;20990;-63
2023/07/16 06:42:10;;;;;;;8.83;2.10;;;21.80;28.90;;;;;;4983792;28;20495;-63
2023/07/16 06:44:36;;;;;;;5.70;2.33;;;21.90;28.90;;;;;;4986454;28;20492;-63
2023/07/16 06:47:03;;;;;;;5.10;2.20;;;21.90;29.00;;;;;;4984305;28;20850;-63
2023/07/16 06:49:32;;;;;;;4.90;2.00;;;22.00;28.30;;;;;;4987182;28;20475;-63
2023/07/16 06:51:58;;;;;;;8.63;2.17;;;22.00;28.20;;;;;;4990799;28;20993;-63
2023/07/16 06:54:25;;;;;;;5.67;1.80;;;22.20;27.70;;;;;;4987568;28;20492;-64
2023/07/16 06:56:53;;;;;;;7.00;2.47;;;22.30;27.10;;;;;;4987828;28;20461;-63
2023/07/16 06:59:20;;;;;;;5.87;2.50;;;22.30;26.80;;;;;;4984503;28;20468;-63
2023/07/16 07:01:46;;;;;;;6.60;2.57;;;22.30;26.90;;;;;;4987451;28;20511;-63
2023/07/16 07:04:13;;;;;;;5.00;2.07;;;22.30;26.60;;;;;;4985919;28;21021;-64
2023/07/16 07:06:40;;;;;;;9.83;2.73;;;22.20;26.20;;;;;;4987548;28;20479;-63
2023/07/16 07:09:07;;;;;;;5.40;2.00;;;22.20;26.00;;;;;;4986160;28;20465;-63
2023/07/16 07:11:34;;;;;;;5.43;1.60;;;22.20;25.80;;;;;;4984513;28;20469;-64
2023/07/16 07:14:02;;;;;;;5.73;2.13;;;22.20;25.20;;;;;;4987833;28;20520;-63
2023/07/16 07:16:28;;;;;;;6.00;2.27;;;22.20;25.30;;;;;;4985366;28;20468;-63
2023/07/16 07:18:55;;;;;;;5.73;1.90;;;22.40;25.20;;;;;;4988860;28;20971;-63
2023/07/16 07:21:22;;;;;;;5.60;2.00;;;22.60;25.50;;;;;;4983283;28;20456;-63
2023/07/16 07:23:48;;;;;;;5.30;1.93;;;22.80;24.40;;;;;;4981034;28;20499;-63
2023/07/16 07:26:15;;;;;;;6.37;2.30;;;23.00;23.50;;;;;;4983141;28;20461;-63
2023/07/16 07:28:42;;;;;;;5.60;1.77;;;24.50;19.20;;;;;;4980001;28;20949;-63
2023/07/16 07:31:10;;;;;;;4.90;1.80;;;24.80;18.40;;;;;;4983143;28;20484;-63
2023/07/16 07:33:36;;;;;;;5.73;1.60;;;25.20;17.00;;;;;;4989331;28;20479;-63
2023/07/16 07:36:03;;;;;;;6.63;1.30;;;25.80;14.50;;;;;;4983779;28;20465;-63
2023/07/16 07:38:30;;;;;;;5.03;1.87;;;25.40;14.30;;;;;;4984076;28;20796;-63
2023/07/16 07:40:57;;;;;;;5.10;1.70;;;25.10;14.50;;;;;;4985950;28;20491;-63
2023/07/16 07:43:23;;;;;;;5.93;1.63;;;24.80;14.80;;;;;;4979294;28;20488;-63
2023/07/16 07:45:50;;;;;;;7.40;1.97;;;24.40;15.50;;;;;;4983615;28;20970;-63
2023/07/16 07:48:18;;;;;;;4.40;1.53;;;24.20;16.60;;;;;;4986087;28;20480;-63
2023/07/16 07:50:47;;;;;;;4.50;1.87;;;24.00;16.90;;;;;;5005124;23;20889;-65
2023/07/16 07:53:14;;;;;;;4.40;1.63;;;23.90;17.50;;;;;;5006804;28;20470;-64
2023/07/16 07:55:41;;;;;;;5.90;1.70;;;23.90;18.00;;;;;;4997913;28;20471;-66
2023/07/16 07:58:08;;;;;;;6.73;2.03;;;24.00;17.30;;;;;;5002266;28;20463;-66
2023/07/16 08:00:35;;;;;;;4.97;1.53;;;24.00;17.60;;;;;;5001236;28;20470;-66
2023/07/16 08:03:02;;;;;;;4.73;1.40;;;23.90;17.40;;;;;;5000441;28;20490;-65
2023/07/16 08:05:30;;;;;;;7.47;1.60;;;23.70;17.50;;;;;;5001436;28;20464;-67
2023/07/16 08:07:57;;;;;;;4.73;1.43;;;23.60;18.00;;;;;;5003126;28;20468;-66
2023/07/16 08:10:24;;;;;;;4.77;1.70;;;23.60;18.60;;;;;;4998591;28;20487;-65
2023/07/16 08:12:50;;;;;;;4.80;1.93;;;24.20;18.90;;;;;;4999976;28;20471;-66
2023/07/16 08:15:19;;;;;;;5.77;1.53;;;27.60;14.00;;;;;;5002890;28;20490;-66
2023/07/16 08:17:47;;;;;;;4.77;1.50;;;29.90;5.90;;;;;;5001979;28;20555;-65
2023/07/16 08:20:14;;;;;;;5.00;1.80;;;29.70;5.00;;;;;;5004622;28;20495;-66
2023/07/16 08:22:42;;;;;;;10.33;1.97;;;29.40;5.20;;;;;;5003931;28;20498;-66
2023/07/16 08:25:09;;;;;;;8.03;1.57;;;29.30;5.60;;;;;;4999641;28;20490;-67
2023/07/16 08:27:36;;;;;;;4.80;1.40;;;29.90;4.40;;;;;;5002180;28;20464;-64
2023/07/16 08:30:03;;;;;;;4.67;1.40;;;30.10;3.90;;;;;;5005973;28;20467;-65
2023/07/16 08:32:30;;;;;;;4.10;1.40;;;30.70;3.20;;;;;;5006565;28;20475;-66
2023/07/16 08:34:56;;;;;;;4.87;1.57;;;31.10;2.20;;;;;;4999750;28;20488;-65
2023/07/16 08:37:23;;;;;;;5.60;1.70;;;31.30;2.00;;;;;;5003880;28;20471;-65
2023/07/16 08:39:53;;;;;;;5.77;1.67;;;31.60;2.00;;;;;;5003951;28;20464;-66
2023/07/16 08:42:20;;;;;;;4.80;1.80;;;33.80;1.00;;;;;;4997537;28;20582;-66
2023/07/16 08:44:49;;;;;;;4.30;1.50;;;35.20;1.00;;;;;;4999544;28;20512;-66
2023/07/16 08:47:16;;;;;;;4.47;1.83;;;36.50;1.00;;;;;;5002875;28;20502;-66
2023/07/16 08:49:54;;;;;;;4.40;1.47;;;37.10;1.00;;;;;;5002926;28;20468;-66
2023/07/16 08:52:21;;;;;;;4.00;1.20;;;38.20;1.00;;;;;;4999326;28;20471;-65
2023/07/16 08:54:47;;;;;;;4.63;1.57;;;38.90;1.00;;;;;;5000954;28;20495;-66
2023/07/16 08:57:16;;;;;;;4.10;1.60;;;40.40;1.00;;;;;;4997560;28;20823;-65
2023/07/16 08:59:44;;;;;;;4.50;1.43;;;42.00;1.00;;;;;;4997592;28;20996;-65
2023/07/16 09:02:11;;;;;;;3.63;1.30;;;43.20;1.00;;;;;;5004755;28;20475;-66
2023/07/16 09:04:37;;;;;;;4.43;1.30;;;44.40;1.00;;;;;;5002211;28;20502;-65
2023/07/16 09:07:05;;;;;;;5.30;1.50;;;43.20;1.00;;;;;;5000762;28;20470;-66
2023/07/16 09:09:32;;;;;;;5.90;2.10;;;41.60;1.00;;;;;;5001615;28;20469;-65
2023/07/16 09:11:59;;;;;;;3.80;1.30;;;40.20;1.00;;;;;;5005175;28;20460;-65
2023/07/16 09:14:27;;;;;;;6.53;1.83;;;38.90;1.00;;;;;;5003364;28;20487;-65
2023/07/16 09:16:54;;;;;;;5.17;1.50;;;38.70;1.00;;;;;;5004017;28;20556;-65
2023/07/16 09:19:22;;;;;;;3.97;1.53;;;38.80;1.00;;;;;;5005927;28;20468;-70
2023/07/16 09:21:49;;;;;;;4.50;1.50;;;40.00;1.00;;;;;;5005950;28;20459;-66
2023/07/16 09:24:16;;;;;;;5.23;1.50;;;41.00;1.00;;;;;;5001224;28;20498;-66
2023/07/16 09:26:49;;;;;;;6.00;1.97;;;41.40;1.00;;;;;;5003196;28;20506;-66
2023/07/16 09:29:16;;;;;;;3.73;1.27;;;42.30;1.00;;;;;;5005562;28;20496;-66
2023/07/16 09:31:54;;;;;;;3.60;1.27;;;43.90;1.00;;;;;;5003946;28;20491;-65
2023/07/16 09:34:20;;;;;;;5.97;1.50;;;42.90;1.00;;;;;;5005356;28;20900;-66
2023/07/16 09:36:48;;;;;;;4.20;1.50;;;41.00;1.00;;;;;;5008258;28;20464;-65
2023/07/16 09:39:17;;;;;;;4.00;1.33;;;39.40;1.00;;;;;;5004318;28;20981;-65
2023/07/16 09:41:45;;;;;;;3.70;1.30;;;38.80;1.00;;;;;;5006863;28;20470;-65
2023/07/16 09:44:13;;;;;;;3.90;1.40;;;38.00;1.00;;;;;;5006609;28;20510;-69
2023/07/16 09:46:39;;;;;;;4.83;1.43;;;38.10;1.00;;;;;;5004920;28;20493;-66
2023/07/16 09:49:08;;;;;;;5.27;1.63;;;38.20;1.00;;;;;;5007675;28;20476;-67
2023/07/16 09:51:37;;;;;;;4.77;1.73;;;37.90;1.00;;;;;;5001816;28;20472;-67
2023/07/16 09:54:04;;;;;;;5.10;1.80;;;37.80;1.00;;;;;;5003686;28;20491;-67
2023/07/16 09:56:36;;;;;;;4.20;1.30;;;37.80;1.00;;;;;;5008748;28;20472;-66
2023/07/16 09:59:05;;;;;;;4.03;1.30;;;37.60;1.00;;;;;;5006950;28;20965;-66
2023/07/16 10:01:32;;;;;;;6.50;2.20;;;37.30;1.00;;;;;;5007072;28;20888;-65
2023/07/16 10:03:59;;;;;;;5.27;1.90;;;37.00;1.00;;;;;;5009878;28;20499;-65
2023/07/16 10:06:27;;;;;;;5.43;1.50;;;36.70;1.00;;;;;;5009773;28;20468;-65
2023/07/16 10:08:54;;;;;;;5.23;1.60;;;36.50;1.00;;;;;;5003871;28;20474;-66
2023/07/16 10:11:21;;;;;;;4.37;1.40;;;36.00;1.00;;;;;;4997147;28;20855;-67
2023/07/16 10:13:51;;;;;;;3.90;1.50;;;35.30;1.00;;;;;;5004912;28;20484;-68
2023/07/16 10:16:21;;;;;;;4.53;1.30;;;34.50;1.00;;;;;;5002085;28;20526;-68
2023/07/16 10:18:53;;;;;;;6.53;1.57;;;34.00;1.00;;;;;;5005455;28;20491;-69
2023/07/16 10:21:24;;;;;;;4.40;1.80;;;33.50;1.00;;;;;;5006753;28;20491;-68
2023/07/16 10:23:58;;;;;;;4.73;1.60;;;33.10;1.00;;;;;;5002639;28;20998;-68
2023/07/16 10:26:28;;;;;;;4.80;2.23;;;32.60;1.00;;;;;;5001440;28;20504;-68
2023/07/16 10:28:55;;;;;;;6.27;1.63;;;32.20;1.00;;;;;;5007755;28;20503;-69
2023/07/16 10:31:24;;;;;;;4.10;1.70;;;31.90;1.00;;;;;;5002129;28;20830;-67
2023/07/16 10:33:59;;;;;;;7.67;2.40;;;31.80;1.00;;;;;;5002774;28;20498;-66
2023/07/16 10:36:26;;;;;;;4.53;2.10;;;31.60;1.00;;;;;;5000389;28;20467;-66
2023/07/16 10:38:54;;;;;;;4.30;1.90;;;31.60;1.00;;;;;;5001825;28;20472;-66
2023/07/16 10:41:21;;;;;;;5.97;2.10;;;31.50;1.00;;;;;;5003085;28;20476;-65
2023/07/16 10:43:48;;;;;;;5.40;2.10;;;31.20;1.00;;;;;;5004123;28;20491;-66
2023/07/16 10:46:15;;;;;;;4.67;2.10;;;30.90;1.00;;;;;;5006852;28;20471;-65
2023/07/16 10:48:47;;;;;;;6.00;1.90;;;30.80;1.00;;;;;;5005617;28;20499;-66
2023/07/16 10:51:15;;;;;;;4.97;2.13;;;31.00;1.00;;;;;;5003487;28;21162;-66
2023/07/16 10:53:42;;;;;;;6.07;2.40;;;31.20;1.00;;;;;;5000626;28;20487;-65
2023/07/16 10:56:10;;;;;;;4.20;1.93;;;31.30;1.00;;;;;;5009772;28;20459;-68
2023/07/16 10:58:37;;;;;;;6.03;2.10;;;31.30;1.00;;;;;;5004476;28;21063;-69
2023/07/16 11:01:04;;;;;;;4.57;2.23;;;31.50;1.00;;;;;;5002657;28;20481;-69
2023/07/16 11:03:31;;;;;;;4.90;2.20;;;31.60;1.00;;;;;;5002863;28;20578;-69
2023/07/16 11:05:58;;;;;;;4.80;1.90;;;31.80;1.00;;;;;;5004586;28;20948;-68
2023/07/16 11:08:25;;;;;;;5.50;2.30;;;31.80;1.00;;;;;;4999167;28;20522;-71
2023/07/16 11:10:56;;;;;;;4.53;2.10;;;31.60;1.00;;;;;;5006619;28;20478;-67
2023/07/16 11:13:28;;;;;;;4.90;1.93;;;31.40;1.00;;;;;;5006362;28;20514;-68
2023/07/16 11:15:55;;;;;;;4.67;2.20;;;31.20;1.00;;;;;;5006439;28;20471;-69
2023/07/16 11:18:24;;;;;;;5.47;2.40;;;31.20;1.00;;;;;;5004948;28;21240;-68
2023/07/16 11:20:52;;;;;;;4.60;1.90;;;31.20;1.00;;;;;;5002204;28;21034;-68
2023/07/16 11:23:18;;;;;;;4.10;1.80;;;31.00;1.00;;;;;;5004010;28;20530;-68
2023/07/16 11:25:47;;;;;;;6.80;1.93;;;30.80;1.00;;;;;;5003110;28;21008;-68
2023/07/16 11:28:14;;;;;;;5.37;1.80;;;30.80;1.00;;;;;;5004289;28;20503;-68
2023/07/16 11:30:43;;;;;;;5.50;1.90;;;30.70;1.00;;;;;;5000747;28;21181;-68
2023/07/16 11:33:11;;;;;;;5.67;1.70;;;30.70;1.00;;;;;;5002122;28;20516;-68
2023/07/16 11:35:38;;;;;;;4.50;1.57;;;30.70;1.00;;;;;;5005331;28;20503;-69
2023/07/16 11:38:05;;;;;;;5.93;1.83;;;30.90;1.00;;;;;;5003240;28;20936;-68
2023/07/16 11:40:35;;;;;;;4.40;1.70;;;30.90;1.00;;;;;;5003308;28;20507;-67
2023/07/16 11:43:09;;;;;;;3.97;1.50;;;30.90;1.00;;;;;;4998461;28;20491;-68
2023/07/16 11:45:36;;;;;;;4.60;2.00;;;30.90;1.00;;;;;;5001293;28;21160;-68
2023/07/16 11:48:05;;;;;;;5.97;2.20;;;30.80;1.00;;;;;;5002706;28;20496;-68
2023/07/16 11:50:32;;;;;;;4.30;1.63;;;30.70;1.00;;;;;;5001201;28;20500;-68
2023/07/16 11:53:01;;;;;;;4.80;1.70;;;30.50;1.00;;;;;;4999606;28;20464;-68
2023/07/16 11:55:28;;;;;;;5.27;2.10;;;30.50;1.00;;;;;;4997045;28;20949;-68
2023/07/16 11:57:56;;;;;;;4.70;1.60;;;30.50;1.00;;;;;;4997894;28;20472;-69
2023/07/16 12:00:23;;;;;;;4.13;1.67;;;30.50;1.00;;;;;;5005151;28;21034;-68
2023/07/16 12:02:51;;;;;;;3.93;1.10;;;30.50;1.00;;;;;;5005558;28;20467;-69
2023/07/16 12:05:20;;;;;;;4.70;1.20;;;30.50;1.00;;;;;;4997610;28;20485;-69
2023/07/16 12:07:47;;;;;;;6.37;2.00;;;30.40;1.00;;;;;;5006213;28;20464;-68
2023/07/16 12:10:14;;;;;;;7.17;1.97;;;30.20;1.00;;;;;;5001552;28;21249;-68
2023/07/16 12:12:43;;;;;;;3.87;1.30;;;30.00;1.00;;;;;;4998570;28;20571;-68
2023/07/16 12:15:11;;;;;;;4.70;1.90;;;29.80;1.00;;;;;;5000708;28;20494;-68
2023/07/16 12:17:38;;;;;;;4.20;1.40;;;29.50;1.00;;;;;;5005529;28;20496;-69
2023/07/16 12:20:06;;;;;;;4.73;1.83;;;29.30;1.00;;;;;;5011591;28;20479;-68
2023/07/16 12:22:36;;;;;;;5.93;1.97;;;29.20;1.00;;;;;;5002075;28;20471;-68
2023/07/16 12:25:02;;;;;;;5.00;2.20;;;29.00;1.20;;;;;;5004925;28;20483;-68
2023/07/16 12:27:29;;;;;;;4.73;1.67;;;29.00;1.00;;;;;;5014041;28;20482;-68
2023/07/16 12:29:56;;;;;;;4.80;2.10;;;28.90;1.00;;;;;;5015955;28;20475;-68
2023/07/16 12:32:22;;;;;;;4.80;2.00;;;28.80;1.00;;;;;;5006287;28;20486;-69
2023/07/16 12:34:49;;;;;;;5.13;1.70;;;28.80;1.00;;;;;;4996031;28;20604;-68
2023/07/16 12:37:16;;;;;;;5.40;1.80;;;28.80;1.00;;;;;;5010410;28;20834;-68
2023/07/16 12:39:44;;;;;;;4.43;1.70;;;28.90;1.00;;;;;;5004384;28;20456;-68
2023/07/16 12:42:11;;;;;;;4.73;1.67;;;28.80;1.00;;;;;;5008817;28;20474;-68
2023/07/16 12:44:38;;;;;;;7.70;1.90;;;28.80;1.00;;;;;;5005132;28;21373;-68
2023/07/16 12:47:08;;;;;;;5.57;1.60;;;28.80;1.00;;;;;;5006381;28;20475;-69
2023/07/16 12:49:35;;;;;;;4.90;1.90;;;28.90;1.00;;;;;;5005469;28;20474;-69